sensor_id;sensor_type;location;lat;lon;timestamp;pressure;altitude;pressure_sealevel;temperature;humidity
59650;BME280;46162;57.568;25.814;2022-07-01T00:00:57;101318.00;;;16.82;100.00
59650;BME280;46162;57.568;25.814;2022-07-01T00:03:26;101311.88;;;16.80;100.00
59650;BME280;46162;57.568;25.814;2022-07-01T00:05:55;101316.97;;;16.83;100.00
59650;BME280;46162;57.568;25.814;2022-07-01T00:08:24;101318.38;;;16.79;100.00
59650;BME280;46162;57.568;25.814;2022-07-01T00:10:53;101324.47;;;16.81;100.00
59650;BME280;46162;57.568;25.814;2022-07-01T00:13:21;101323.47;;;16.82;100.00
59650;BME280;46162;57.568;25.814;2022-07-01T00:15:51;101329.06;;;16.81;100.00
59650;BME280;46162;57.568;25.814;2022-07-01T00:18:21;101330.59;;;16.75;100.00
59650;BME280;46162;57.568;25.814;2022-07-01T00:20:51;101330.78;;;16.73;100.00
59650;BME280;46162;57.568;25.814;2022-07-01T00:23:20;101325.34;;;16.82;100.00
59650;BME280;46162;57.568;25.814;2022-07-01T00:25:49;101337.22;;;16.89;100.00
59650;BME280;46162;57.568;25.814;2022-07-01T00:28:17;101344.59;;;16.80;100.00
59650;BME280;46162;57.568;25.814;2022-07-01T00:30:46;101338.97;;;16.73;100.00
59650;BME280;46162;57.568;25.814;2022-07-01T00:33:16;101334.34;;;16.74;100.00
59650;BME280;46162;57.568;25.814;2022-07-01T00:35:45;101343.28;;;16.60;100.00
59650;BME280;46162;57.568;25.814;2022-07-01T00:38:14;101338.16;;;16.56;100.00
59650;BME280;46162;57.568;25.814;2022-07-01T00:40:42;101329.13;;;16.56;100.00
59650;BME280;46162;57.568;25.814;2022-07-01T00:43:11;101332.81;;;16.32;100.00
59650;BME280;46162;57.568;25.814;2022-07-01T00:45:44;101330.25;;;16.14;100.00
59650;BME280;46162;57.568;25.814;2022-07-01T00:48:13;101328.78;;;15.95;100.00
59650;BME280;46162;57.568;25.814;2022-07-01T00:50:43;101330.47;;;15.88;100.00
59650;BME280;46162;57.568;25.814;2022-07-01T00:53:14;101330.81;;;15.77;100.00
59650;BME280;46162;57.568;25.814;2022-07-01T00:55:43;101323.13;;;15.64;100.00
59650;BME280;46162;57.568;25.814;2022-07-01T00:58:11;101329.75;;;15.61;100.00
59650;BME280;46162;57.568;25.814;2022-07-01T01:00:40;101326.19;;;15.61;100.00
59650;BME280;46162;57.568;25.814;2022-07-01T01:03:10;101327.88;;;15.54;100.00
59650;BME280;46162;57.568;25.814;2022-07-01T01:05:40;101325.31;;;15.44;100.00
59650;BME280;46162;57.568;25.814;2022-07-01T01:08:11;101332.97;;;15.48;100.00
59650;BME280;46162;57.568;25.814;2022-07-01T01:10:40;101340.97;;;15.42;100.00
59650;BME280;46162;57.568;25.814;2022-07-01T01:13:09;101337.72;;;15.38;100.00
59650;BME280;46162;57.568;25.814;2022-07-01T01:15:41;101336.84;;;15.38;100.00
59650;BME280;46162;57.568;25.814;2022-07-01T01:18:09;101337.88;;;15.45;100.00
59650;BME280;46162;57.568;25.814;2022-07-01T01:20:39;101333.13;;;15.39;100.00
59650;BME280;46162;57.568;25.814;2022-07-01T01:23:08;101332.94;;;15.32;100.00
59650;BME280;46162;57.568;25.814;2022-07-01T01:25:37;101328.69;;;15.38;100.00
59650;BME280;46162;57.568;25.814;2022-07-01T01:28:06;101330.34;;;15.14;100.00
59650;BME280;46162;57.568;25.814;2022-07-01T01:30:35;101330.50;;;15.04;100.00
59650;BME280;46162;57.568;25.814;2022-07-01T01:33:04;101321.66;;;15.11;100.00
59650;BME280;46162;57.568;25.814;2022-07-01T01:35:35;101325.25;;;15.11;100.00
59650;BME280;46162;57.568;25.814;2022-07-01T01:38:05;101322.19;;;15.14;100.00
59650;BME280;46162;57.568;25.814;2022-07-01T01:40:34;101316.75;;;15.06;100.00
59650;BME280;46162;57.568;25.814;2022-07-01T01:43:02;101318.06;;;14.94;100.00
59650;BME280;46162;57.568;25.814;2022-07-01T01:45:31;101311.25;;;14.90;100.00
59650;BME280;46162;57.568;25.814;2022-07-01T01:48:00;101317.03;;;14.87;100.00
59650;BME280;46162;57.568;25.814;2022-07-01T01:50:29;101316.34;;;14.84;100.00
59650;BME280;46162;57.568;25.814;2022-07-01T01:52:57;101315.31;;;14.86;100.00
59650;BME280;46162;57.568;25.814;2022-07-01T01:55:27;101319.69;;;14.78;100.00
59650;BME280;46162;57.568;25.814;2022-07-01T01:57:56;101321.56;;;14.78;100.00
59650;BME280;46162;57.568;25.814;2022-07-01T02:00:25;101326.53;;;14.82;100.00
59650;BME280;46162;57.568;25.814;2022-07-01T02:02:54;101317.50;;;14.82;100.00
59650;BME280;46162;57.568;25.814;2022-07-01T02:05:23;101326.84;;;14.79;100.00
59650;BME280;46162;57.568;25.814;2022-07-01T02:07:51;101319.69;;;14.78;100.00
59650;BME280;46162;57.568;25.814;2022-07-01T02:10:20;101323.44;;;14.77;100.00
59650;BME280;46162;57.568;25.814;2022-07-01T02:12:50;101324.78;;;14.73;100.00
59650;BME280;46162;57.568;25.814;2022-07-01T02:15:19;101324.47;;;14.76;100.00
59650;BME280;46162;57.568;25.814;2022-07-01T02:17:48;101335.84;;;14.80;100.00
59650;BME280;46162;57.568;25.814;2022-07-01T02:20:19;101337.38;;;14.82;100.00
59650;BME280;46162;57.568;25.814;2022-07-01T02:22:48;101333.00;;;14.90;100.00
59650;BME280;46162;57.568;25.814;2022-07-01T02:25:16;101327.56;;;14.90;100.00
59650;BME280;46162;57.568;25.814;2022-07-01T02:27:45;101327.56;;;14.90;100.00
59650;BME280;46162;57.568;25.814;2022-07-01T02:30:15;101331.31;;;14.89;100.00
59650;BME280;46162;57.568;25.814;2022-07-01T02:32:44;101330.31;;;14.98;100.00
59650;BME280;46162;57.568;25.814;2022-07-01T02:35:13;101339.84;;;15.10;100.00
59650;BME280;46162;57.568;25.814;2022-07-01T02:37:42;101351.44;;;15.20;100.00
59650;BME280;46162;57.568;25.814;2022-07-01T02:40:11;101353.84;;;15.23;100.00
59650;BME280;46162;57.568;25.814;2022-07-01T02:42:40;101352.69;;;15.34;100.00
59650;BME280;46162;57.568;25.814;2022-07-01T02:45:09;101355.09;;;15.45;100.00
59650;BME280;46162;57.568;25.814;2022-07-01T02:47:40;101367.50;;;15.56;100.00
59650;BME280;46162;57.568;25.814;2022-07-01T02:50:10;101368.91;;;15.68;100.00
59650;BME280;46162;57.568;25.814;2022-07-01T02:52:43;101366.19;;;15.85;100.00
59650;BME280;46162;57.568;25.814;2022-07-01T02:55:13;101371.31;;;15.96;100.00
59650;BME280;46162;57.568;25.814;2022-07-01T02:57:42;101380.50;;;16.11;100.00
59650;BME280;46162;57.568;25.814;2022-07-01T03:00:13;101381.69;;;16.17;100.00
59650;BME280;46162;57.568;25.814;2022-07-01T03:02:43;101395.31;;;16.25;100.00
59650;BME280;46162;57.568;25.814;2022-07-01T03:05:12;101394.09;;;16.28;100.00
59650;BME280;46162;57.568;25.814;2022-07-01T03:07:41;101394.09;;;16.36;100.00
59650;BME280;46162;57.568;25.814;2022-07-01T03:10:10;101398.47;;;16.53;100.00
59650;BME280;46162;57.568;25.814;2022-07-01T03:12:39;101402.53;;;16.82;100.00
59650;BME280;46162;57.568;25.814;2022-07-01T03:15:09;101415.47;;;16.96;100.00
59650;BME280;46162;57.568;25.814;2022-07-01T03:17:40;101414.69;;;17.19;100.00
59650;BME280;46162;57.568;25.814;2022-07-01T03:20:12;101411.75;;;17.20;100.00
59650;BME280;46162;57.568;25.814;2022-07-01T03:22:42;101415.97;;;17.31;100.00
59650;BME280;46162;57.568;25.814;2022-07-01T03:25:11;101417.63;;;17.40;100.00
59650;BME280;46162;57.568;25.814;2022-07-01T03:27:40;101415.53;;;17.51;100.00
59650;BME280;46162;57.568;25.814;2022-07-01T03:30:13;101408.94;;;17.68;100.00
59650;BME280;46162;57.568;25.814;2022-07-01T03:32:42;101405.56;;;17.89;100.00
59650;BME280;46162;57.568;25.814;2022-07-01T03:35:13;101399.84;;;17.99;100.00
59650;BME280;46162;57.568;25.814;2022-07-01T03:37:59;101403.47;;;18.14;100.00
59650;BME280;46162;57.568;25.814;2022-07-01T03:40:28;101395.88;;;18.24;100.00
59650;BME280;46162;57.568;25.814;2022-07-01T03:42:58;101384.50;;;18.36;100.00
59650;BME280;46162;57.568;25.814;2022-07-01T03:45:27;101390.53;;;18.46;100.00
59650;BME280;46162;57.568;25.814;2022-07-01T03:47:56;101386.47;;;18.57;100.00
59650;BME280;46162;57.568;25.814;2022-07-01T03:50:26;101381.41;;;18.68;100.00
59650;BME280;46162;57.568;25.814;2022-07-01T03:52:55;101375.38;;;18.73;100.00
59650;BME280;46162;57.568;25.814;2022-07-01T03:55:41;101377.28;;;18.87;100.00
59650;BME280;46162;57.568;25.814;2022-07-01T03:58:10;101374.53;;;19.02;100.00
59650;BME280;46162;57.568;25.814;2022-07-01T04:00:39;101372.38;;;18.98;100.00
59650;BME280;46162;57.568;25.814;2022-07-01T04:03:09;101368.28;;;19.08;100.00
59650;BME280;46162;57.568;25.814;2022-07-01T04:05:39;101368.56;;;19.13;100.00
59650;BME280;46162;57.568;25.814;2022-07-01T04:08:08;101365.72;;;19.22;100.00
59650;BME280;46162;57.568;25.814;2022-07-01T04:10:38;101374.81;;;19.07;100.00
59650;BME280;46162;57.568;25.814;2022-07-01T04:13:08;101371.28;;;19.13;100.00
59650;BME280;46162;57.568;25.814;2022-07-01T04:16:00;101374.53;;;19.17;100.00
59650;BME280;46162;57.568;25.814;2022-07-01T04:18:29;101364.72;;;19.08;100.00
59650;BME280;46162;57.568;25.814;2022-07-01T04:21:00;101361.25;;;18.99;100.00
59650;BME280;46162;57.568;25.814;2022-07-01T04:23:46;101360.44;;;19.20;100.00
59650;BME280;46162;57.568;25.814;2022-07-01T04:26:15;101362.28;;;19.34;100.00
59650;BME280;46162;57.568;25.814;2022-07-01T04:29:03;101371.75;;;19.32;100.00
59650;BME280;46162;57.568;25.814;2022-07-01T04:31:32;101375.59;;;19.38;100.00
59650;BME280;46162;57.568;25.814;2022-07-01T04:34:01;101376.78;;;19.50;100.00
59650;BME280;46162;57.568;25.814;2022-07-01T04:36:32;101382.56;;;19.40;100.00
59650;BME280;46162;57.568;25.814;2022-07-01T04:39:01;101378.41;;;19.44;100.00
59650;BME280;46162;57.568;25.814;2022-07-01T04:41:31;101391.78;;;19.54;100.00
59650;BME280;46162;57.568;25.814;2022-07-01T04:44:18;101389.69;;;19.71;100.00
59650;BME280;46162;57.568;25.814;2022-07-01T04:46:47;101374.16;;;19.78;100.00
59650;BME280;46162;57.568;25.814;2022-07-01T04:49:16;101373.78;;;19.81;100.00
59650;BME280;46162;57.568;25.814;2022-07-01T04:51:46;101370.91;;;19.89;100.00
59650;BME280;46162;57.568;25.814;2022-07-01T04:54:15;101382.38;;;20.00;100.00
59650;BME280;46162;57.568;25.814;2022-07-01T04:56:44;101385.34;;;20.05;100.00
59650;BME280;46162;57.568;25.814;2022-07-01T04:59:14;101384.25;;;20.21;100.00
59650;BME280;46162;57.568;25.814;2022-07-01T05:01:43;101380.09;;;20.31;100.00
59650;BME280;46162;57.568;25.814;2022-07-01T05:04:12;101379.09;;;20.39;100.00
59650;BME280;46162;57.568;25.814;2022-07-01T05:06:41;101382.56;;;20.54;100.00
59650;BME280;46162;57.568;25.814;2022-07-01T05:09:12;101377.41;;;20.66;100.00
59650;BME280;46162;57.568;25.814;2022-07-01T05:11:42;101390.34;;;20.72;100.00
59650;BME280;46162;57.568;25.814;2022-07-01T05:14:10;101382.78;;;20.81;100.00
59650;BME280;46162;57.568;25.814;2022-07-01T05:19:08;101368.69;;;20.91;100.00
59650;BME280;46162;57.568;25.814;2022-07-01T05:21:54;101369.38;;;20.99;100.00
59650;BME280;46162;57.568;25.814;2022-07-01T05:24:30;101368.41;;;21.20;100.00
59650;BME280;46162;57.568;25.814;2022-07-01T05:27:00;101368.59;;;21.12;100.00
59650;BME280;46162;57.568;25.814;2022-07-01T05:29:29;101361.91;;;21.35;100.00
59650;BME280;46162;57.568;25.814;2022-07-01T05:31:58;101349.84;;;21.36;100.00
59650;BME280;46162;57.568;25.814;2022-07-01T05:34:27;101348.41;;;21.40;100.00
59650;BME280;46162;57.568;25.814;2022-07-01T05:36:56;101352.69;;;21.49;100.00
59650;BME280;46162;57.568;25.814;2022-07-01T05:39:25;101350.13;;;21.61;100.00
59650;BME280;46162;57.568;25.814;2022-07-01T05:41:55;101340.88;;;21.75;100.00
59650;BME280;46162;57.568;25.814;2022-07-01T05:44:24;101345.34;;;21.96;100.00
59650;BME280;46162;57.568;25.814;2022-07-01T05:46:53;101339.41;;;21.86;100.00
59650;BME280;46162;57.568;25.814;2022-07-01T05:49:22;101338.97;;;21.96;100.00
59650;BME280;46162;57.568;25.814;2022-07-01T05:51:51;101332.63;;;21.82;100.00
59650;BME280;46162;57.568;25.814;2022-07-01T05:54:20;101332.00;;;22.00;100.00
59650;BME280;46162;57.568;25.814;2022-07-01T05:56:48;101327.75;;;21.90;100.00
59650;BME280;46162;57.568;25.814;2022-07-01T05:59:18;101336.22;;;22.02;100.00
59650;BME280;46162;57.568;25.814;2022-07-01T06:01:47;101336.84;;;22.18;100.00
59650;BME280;46162;57.568;25.814;2022-07-01T06:04:18;101343.22;;;22.25;100.00
59650;BME280;46162;57.568;25.814;2022-07-01T06:06:57;101335.59;;;22.27;100.00
59650;BME280;46162;57.568;25.814;2022-07-01T06:09:26;101341.31;;;22.25;100.00
59650;BME280;46162;57.568;25.814;2022-07-01T06:11:54;101346.38;;;22.42;100.00
59650;BME280;46162;57.568;25.814;2022-07-01T06:14:25;101341.50;;;22.44;100.00
59650;BME280;46162;57.568;25.814;2022-07-01T06:16:54;101338.13;;;22.42;100.00
59650;BME280;46162;57.568;25.814;2022-07-01T06:19:23;101341.91;;;22.54;100.00
59650;BME280;46162;57.568;25.814;2022-07-01T06:21:52;101341.25;;;22.59;100.00
59650;BME280;46162;57.568;25.814;2022-07-01T06:24:21;101340.16;;;22.73;100.00
59650;BME280;46162;57.568;25.814;2022-07-01T06:26:51;101338.44;;;22.79;100.00
59650;BME280;46162;57.568;25.814;2022-07-01T06:29:20;101336.91;;;22.89;100.00
59650;BME280;46162;57.568;25.814;2022-07-01T06:31:50;101340.59;;;22.70;100.00
59650;BME280;46162;57.568;25.814;2022-07-01T06:34:18;101334.69;;;22.66;100.00
59650;BME280;46162;57.568;25.814;2022-07-01T06:36:47;101331.09;;;22.66;100.00
59650;BME280;46162;57.568;25.814;2022-07-01T06:39:16;101323.63;;;22.80;100.00
59650;BME280;46162;57.568;25.814;2022-07-01T06:41:46;101327.63;;;22.90;100.00
59650;BME280;46162;57.568;25.814;2022-07-01T06:44:15;101325.28;;;23.01;100.00
59650;BME280;46162;57.568;25.814;2022-07-01T06:46:44;101325.63;;;23.11;100.00
59650;BME280;46162;57.568;25.814;2022-07-01T06:49:15;101326.09;;;23.08;100.00
59650;BME280;46162;57.568;25.814;2022-07-01T06:51:43;101326.72;;;23.10;100.00
59650;BME280;46162;57.568;25.814;2022-07-01T06:54:12;101334.44;;;23.26;100.00
59650;BME280;46162;57.568;25.814;2022-07-01T06:56:41;101337.22;;;23.26;100.00
59650;BME280;46162;57.568;25.814;2022-07-01T06:59:10;101329.78;;;23.27;100.00
59650;BME280;46162;57.568;25.814;2022-07-01T07:01:39;101342.34;;;23.16;100.00
59650;BME280;46162;57.568;25.814;2022-07-01T07:04:07;101338.53;;;23.55;100.00
59650;BME280;46162;57.568;25.814;2022-07-01T07:06:38;101333.50;;;23.46;100.00
59650;BME280;46162;57.568;25.814;2022-07-01T07:09:07;101333.78;;;23.69;100.00
59650;BME280;46162;57.568;25.814;2022-07-01T07:11:35;101328.47;;;23.74;100.00
59650;BME280;46162;57.568;25.814;2022-07-01T07:14:04;101324.44;;;23.70;100.00
59650;BME280;46162;57.568;25.814;2022-07-01T07:16:33;101324.00;;;23.73;100.00
59650;BME280;46162;57.568;25.814;2022-07-01T07:19:02;101314.22;;;23.71;100.00
59650;BME280;46162;57.568;25.814;2022-07-01T07:21:31;101321.16;;;23.55;100.00
59650;BME280;46162;57.568;25.814;2022-07-01T07:24:01;101317.38;;;23.49;100.00
59650;BME280;46162;57.568;25.814;2022-07-01T07:26:30;101318.91;;;23.70;100.00
59650;BME280;46162;57.568;25.814;2022-07-01T07:28:58;101324.47;;;23.64;100.00
59650;BME280;46162;57.568;25.814;2022-07-01T07:31:27;101327.47;;;23.62;100.00
59650;BME280;46162;57.568;25.814;2022-07-01T07:33:56;101327.13;;;23.52;100.00
59650;BME280;46162;57.568;25.814;2022-07-01T07:36:25;101322.47;;;23.46;100.00
59650;BME280;46162;57.568;25.814;2022-07-01T07:38:54;101327.63;;;23.74;100.00
59650;BME280;46162;57.568;25.814;2022-07-01T07:41:24;101326.22;;;23.58;100.00
59650;BME280;46162;57.568;25.814;2022-07-01T07:43:53;101334.25;;;23.59;100.00
59650;BME280;46162;57.568;25.814;2022-07-01T07:46:21;101322.56;;;23.64;100.00
59650;BME280;46162;57.568;25.814;2022-07-01T07:48:50;101328.25;;;23.69;100.00
59650;BME280;46162;57.568;25.814;2022-07-01T07:51:19;101330.06;;;23.89;100.00
59650;BME280;46162;57.568;25.814;2022-07-01T07:53:53;101329.81;;;23.90;100.00
59650;BME280;46162;57.568;25.814;2022-07-01T07:56:23;101334.19;;;23.66;100.00
59650;BME280;46162;57.568;25.814;2022-07-01T07:58:52;101333.81;;;23.63;100.00
59650;BME280;46162;57.568;25.814;2022-07-01T08:01:21;101337.28;;;23.83;100.00
59650;BME280;46162;57.568;25.814;2022-07-01T08:03:52;101344.69;;;23.89;100.00
59650;BME280;46162;57.568;25.814;2022-07-01T08:06:22;101342.47;;;23.98;100.00
59650;BME280;46162;57.568;25.814;2022-07-01T08:08:51;101350.81;;;24.16;100.00
59650;BME280;46162;57.568;25.814;2022-07-01T08:11:19;101360.16;;;24.15;100.00
59650;BME280;46162;57.568;25.814;2022-07-01T08:13:50;101355.25;;;24.17;100.00
59650;BME280;46162;57.568;25.814;2022-07-01T08:16:19;101352.13;;;24.57;100.00
59650;BME280;46162;57.568;25.814;2022-07-01T08:18:48;101343.63;;;24.59;100.00
59650;BME280;46162;57.568;25.814;2022-07-01T08:21:17;101353.69;;;24.72;100.00
59650;BME280;46162;57.568;25.814;2022-07-01T08:23:46;101354.31;;;24.74;100.00
59650;BME280;46162;57.568;25.814;2022-07-01T08:26:15;101357.59;;;25.01;100.00
59650;BME280;46162;57.568;25.814;2022-07-01T08:28:45;101357.66;;;25.13;100.00
59650;BME280;46162;57.568;25.814;2022-07-01T08:31:15;101354.66;;;25.33;100.00
59650;BME280;46162;57.568;25.814;2022-07-01T08:33:44;101361.78;;;25.40;100.00
59650;BME280;46162;57.568;25.814;2022-07-01T08:36:13;101362.91;;;25.51;100.00
59650;BME280;46162;57.568;25.814;2022-07-01T08:38:42;101365.09;;;25.12;100.00
59650;BME280;46162;57.568;25.814;2022-07-01T08:41:13;101351.44;;;25.17;100.00
59650;BME280;46162;57.568;25.814;2022-07-01T08:43:42;101368.34;;;25.27;100.00
59650;BME280;46162;57.568;25.814;2022-07-01T08:46:12;101377.06;;;25.24;100.00
59650;BME280;46162;57.568;25.814;2022-07-01T08:48:43;101377.44;;;25.09;100.00
59650;BME280;46162;57.568;25.814;2022-07-01T08:51:12;101382.47;;;25.19;100.00
59650;BME280;46162;57.568;25.814;2022-07-01T08:53:41;101384.91;;;25.27;100.00
59650;BME280;46162;57.568;25.814;2022-07-01T08:56:10;101376.38;;;25.29;100.00
59650;BME280;46162;57.568;25.814;2022-07-01T08:58:56;101369.97;;;25.47;100.00
59650;BME280;46162;57.568;25.814;2022-07-01T09:01:25;101366.72;;;25.80;100.00
59650;BME280;46162;57.568;25.814;2022-07-01T09:04:12;101366.66;;;25.99;100.00
59650;BME280;46162;57.568;25.814;2022-07-01T09:06:42;101367.75;;;25.98;100.00
59650;BME280;46162;57.568;25.814;2022-07-01T09:09:12;101374.94;;;25.87;100.00
59650;BME280;46162;57.568;25.814;2022-07-01T09:11:46;101381.84;;;26.20;100.00
59650;BME280;46162;57.568;25.814;2022-07-01T09:14:23;101377.25;;;25.90;100.00
59650;BME280;46162;57.568;25.814;2022-07-01T09:16:54;101373.78;;;26.18;100.00
59650;BME280;46162;57.568;25.814;2022-07-01T09:19:28;101367.16;;;26.07;100.00
59650;BME280;46162;57.568;25.814;2022-07-01T09:22:00;101371.63;;;26.20;100.00
59650;BME280;46162;57.568;25.814;2022-07-01T09:24:30;101362.47;;;26.08;100.00
59650;BME280;46162;57.568;25.814;2022-07-01T09:27:02;101368.00;;;26.08;100.00
59650;BME280;46162;57.568;25.814;2022-07-01T09:29:35;101364.28;;;26.14;100.00
59650;BME280;46162;57.568;25.814;2022-07-01T09:32:05;101365.59;;;26.00;100.00
59650;BME280;46162;57.568;25.814;2022-07-01T09:34:41;101367.41;;;26.17;100.00
59650;BME280;46162;57.568;25.814;2022-07-01T09:37:12;101365.34;;;26.48;100.00
59650;BME280;46162;57.568;25.814;2022-07-01T09:39:44;101367.06;;;26.49;100.00
59650;BME280;46162;57.568;25.814;2022-07-01T09:42:15;101366.94;;;26.68;100.00
59650;BME280;46162;57.568;25.814;2022-07-01T09:44:56;101368.13;;;26.84;100.00
59650;BME280;46162;57.568;25.814;2022-07-01T09:47:31;101363.09;;;26.80;100.00
59650;BME280;46162;57.568;25.814;2022-07-01T09:50:02;101363.72;;;26.59;100.00
59650;BME280;46162;57.568;25.814;2022-07-01T09:52:32;101353.19;;;26.85;97.53
59650;BME280;46162;57.568;25.814;2022-07-01T09:55:03;101352.59;;;26.83;100.00
59650;BME280;46162;57.568;25.814;2022-07-01T09:57:32;101351.13;;;26.92;100.00
59650;BME280;46162;57.568;25.814;2022-07-01T10:00:03;101351.63;;;26.89;100.00
59650;BME280;46162;57.568;25.814;2022-07-01T10:02:34;101349.97;;;27.16;99.07
59650;BME280;46162;57.568;25.814;2022-07-01T10:05:07;101352.75;;;27.16;100.00
59650;BME280;46162;57.568;25.814;2022-07-01T10:07:47;101360.81;;;27.18;100.00
59650;BME280;46162;57.568;25.814;2022-07-01T10:10:33;101364.69;;;27.05;100.00
59650;BME280;46162;57.568;25.814;2022-07-01T10:13:06;101357.59;;;27.21;100.00
59650;BME280;46162;57.568;25.814;2022-07-01T10:15:37;101355.34;;;27.35;100.00
59650;BME280;46162;57.568;25.814;2022-07-01T10:18:19;101353.88;;;27.44;98.71
59650;BME280;46162;57.568;25.814;2022-07-01T10:20:52;101341.78;;;27.50;100.00
59650;BME280;46162;57.568;25.814;2022-07-01T10:23:24;101337.19;;;27.27;100.00
59650;BME280;46162;57.568;25.814;2022-07-01T10:25:53;101341.00;;;27.38;100.00
59650;BME280;46162;57.568;25.814;2022-07-01T10:28:41;101349.97;;;27.28;97.74
59650;BME280;46162;57.568;25.814;2022-07-01T10:31:13;101342.09;;;26.96;100.00
59650;BME280;46162;57.568;25.814;2022-07-01T10:33:48;101337.50;;;26.90;100.00
59650;BME280;46162;57.568;25.814;2022-07-01T10:36:25;101323.31;;;26.87;100.00
59650;BME280;46162;57.568;25.814;2022-07-01T10:39:13;101324.41;;;27.26;100.00
59650;BME280;46162;57.568;25.814;2022-07-01T10:42:00;101315.88;;;27.44;100.00
59650;BME280;46162;57.568;25.814;2022-07-01T10:45:07;101316.25;;;27.65;93.31
59650;BME280;46162;57.568;25.814;2022-07-01T10:47:38;101314.91;;;27.67;96.24
59650;BME280;46162;57.568;25.814;2022-07-01T10:50:10;101308.16;;;27.92;96.57
59650;BME280;46162;57.568;25.814;2022-07-01T10:52:58;101312.34;;;27.49;100.00
59650;BME280;46162;57.568;25.814;2022-07-01T10:55:37;101311.31;;;27.67;96.94
59650;BME280;46162;57.568;25.814;2022-07-01T10:58:06;101308.63;;;27.72;100.00
59650;BME280;46162;57.568;25.814;2022-07-01T11:00:35;101304.56;;;27.63;100.00
59650;BME280;46162;57.568;25.814;2022-07-01T11:03:13;101306.81;;;27.95;100.00
59650;BME280;46162;57.568;25.814;2022-07-01T11:05:43;101305.56;;;27.74;100.00
59650;BME280;46162;57.568;25.814;2022-07-01T11:08:13;101292.06;;;27.77;100.00
59650;BME280;46162;57.568;25.814;2022-07-01T11:10:54;101280.63;;;28.07;96.81
59650;BME280;46162;57.568;25.814;2022-07-01T11:13:24;101290.00;;;28.23;100.00
59650;BME280;46162;57.568;25.814;2022-07-01T11:15:54;101282.97;;;28.16;100.00
59650;BME280;46162;57.568;25.814;2022-07-01T11:18:24;101290.22;;;28.00;93.35
59650;BME280;46162;57.568;25.814;2022-07-01T11:21:02;101292.22;;;27.71;100.00
59650;BME280;46162;57.568;25.814;2022-07-01T11:23:34;101289.00;;;27.45;100.00
59650;BME280;46162;57.568;25.814;2022-07-01T11:26:22;101279.13;;;27.20;100.00
59650;BME280;46162;57.568;25.814;2022-07-01T11:28:51;101283.22;;;27.18;100.00
59650;BME280;46162;57.568;25.814;2022-07-01T11:31:30;101272.50;;;27.21;100.00
59650;BME280;46162;57.568;25.814;2022-07-01T11:34:00;101275.22;;;27.50;100.00
59650;BME280;46162;57.568;25.814;2022-07-01T11:36:29;101273.41;;;27.73;100.00
59650;BME280;46162;57.568;25.814;2022-07-01T11:39:18;101269.88;;;27.94;100.00
59650;BME280;46162;57.568;25.814;2022-07-01T11:41:57;101277.75;;;28.19;100.00
59650;BME280;46162;57.568;25.814;2022-07-01T11:44:29;101261.34;;;28.18;100.00
59650;BME280;46162;57.568;25.814;2022-07-01T11:46:58;101266.88;;;28.35;100.00
59650;BME280;46162;57.568;25.814;2022-07-01T11:49:27;101258.44;;;28.46;94.37
59650;BME280;46162;57.568;25.814;2022-07-01T11:51:57;101265.41;;;28.10;100.00
59650;BME280;46162;57.568;25.814;2022-07-01T11:54:28;101266.16;;;27.72;97.65
59650;BME280;46162;57.568;25.814;2022-07-01T11:57:08;101261.28;;;27.79;100.00
59650;BME280;46162;57.568;25.814;2022-07-01T11:59:37;101265.84;;;27.85;100.00
59650;BME280;46162;57.568;25.814;2022-07-01T12:02:09;101266.09;;;27.83;100.00
59650;BME280;46162;57.568;25.814;2022-07-01T12:04:40;101264.50;;;28.04;100.00
59650;BME280;46162;57.568;25.814;2022-07-01T12:07:09;101265.19;;;27.95;94.49
59650;BME280;46162;57.568;25.814;2022-07-01T12:09:41;101260.47;;;27.95;100.00
59650;BME280;46162;57.568;25.814;2022-07-01T12:12:15;101266.91;;;28.01;100.00
59650;BME280;46162;57.568;25.814;2022-07-01T12:14:52;101265.16;;;27.78;100.00
59650;BME280;46162;57.568;25.814;2022-07-01T12:17:23;101253.38;;;27.71;93.42
59650;BME280;46162;57.568;25.814;2022-07-01T12:19:53;101250.84;;;27.69;100.00
59650;BME280;46162;57.568;25.814;2022-07-01T12:22:23;101256.06;;;27.65;100.00
59650;BME280;46162;57.568;25.814;2022-07-01T12:25:04;101266.44;;;27.24;100.00
59650;BME280;46162;57.568;25.814;2022-07-01T12:27:34;101254.88;;;27.28;100.00
59650;BME280;46162;57.568;25.814;2022-07-01T12:30:07;101252.34;;;27.26;100.00
59650;BME280;46162;57.568;25.814;2022-07-01T12:32:39;101256.72;;;27.39;97.21
59650;BME280;46162;57.568;25.814;2022-07-01T12:35:09;101253.25;;;27.32;100.00
59650;BME280;46162;57.568;25.814;2022-07-01T12:37:59;101253.34;;;27.37;100.00
59650;BME280;46162;57.568;25.814;2022-07-01T12:40:30;101254.78;;;27.39;100.00
59650;BME280;46162;57.568;25.814;2022-07-01T12:42:59;101249.50;;;27.38;100.00
59650;BME280;46162;57.568;25.814;2022-07-01T12:45:39;101250.16;;;27.28;100.00
59650;BME280;46162;57.568;25.814;2022-07-01T12:48:08;101257.53;;;27.22;100.00
59650;BME280;46162;57.568;25.814;2022-07-01T12:50:37;101246.44;;;27.22;100.00
59650;BME280;46162;57.568;25.814;2022-07-01T12:53:07;101246.31;;;27.17;100.00